createdAt,value
2023-05-16T00:00:01.528Z,10.03
2023-05-16T00:02:23.096Z,9.83
2023-05-16T00:04:45.681Z,10.67
2023-05-16T00:07:07.153Z,10.27
2023-05-16T00:09:28.598Z,10.23
2023-05-16T00:11:51.004Z,9.80
2023-05-16T00:14:12.511Z,10.10
2023-05-16T00:16:37.061Z,11.63
2023-05-16T00:18:59.952Z,10.70
2023-05-16T00:21:23.642Z,10.73
2023-05-16T00:23:45.426Z,10.37
2023-05-16T00:26:06.841Z,10.23
2023-05-16T00:28:28.272Z,10.83
2023-05-16T00:30:49.930Z,9.90
2023-05-16T00:33:11.430Z,9.70
2023-05-16T00:35:32.893Z,10.53
2023-05-16T00:37:54.451Z,11.00
2023-05-16T00:40:15.955Z,11.17
2023-05-16T00:42:38.898Z,11.47
2023-05-16T00:45:00.372Z,12.07
2023-05-16T00:47:21.798Z,11.57
2023-05-16T00:49:43.662Z,11.23
2023-05-16T00:52:05.569Z,12.00
2023-05-16T00:54:29.247Z,12.13
2023-05-16T00:56:50.821Z,11.37
2023-05-16T00:59:12.489Z,11.77
2023-05-16T01:01:35.484Z,14.10
2023-05-16T01:03:57.160Z,12.60
2023-05-16T01:06:19.186Z,15.00
2023-05-16T01:08:40.669Z,13.83
2023-05-16T01:11:22.229Z,13.87
2023-05-16T01:14:02.293Z,13.27
2023-05-16T01:16:34.221Z,12.17
2023-05-16T01:19:09.227Z,12.40
2023-05-16T01:22:06.644Z,14.57
2023-05-16T01:24:52.126Z,14.47
2023-05-16T01:27:13.924Z,14.13
2023-05-16T01:29:35.392Z,14.03
2023-05-16T01:31:58.401Z,14.83
2023-05-16T01:34:20.022Z,14.87
2023-05-16T01:37:19.851Z,17.07
2023-05-16T01:39:49.305Z,15.27
2023-05-16T01:42:11.144Z,15.67
2023-05-16T01:44:41.341Z,15.40
2023-05-16T01:47:08.155Z,16.03
2023-05-16T01:49:39.168Z,15.90
2023-05-16T01:52:04.804Z,16.97
2023-05-16T01:54:30.992Z,16.77
2023-05-16T01:56:56.046Z,16.13
2023-05-16T01:59:20.488Z,15.60
2023-05-16T02:01:41.950Z,16.37
2023-05-16T02:04:03.551Z,15.77
2023-05-16T02:06:26.025Z,15.80
2023-05-16T02:08:47.600Z,16.93
2023-05-16T02:11:09.077Z,17.13
2023-05-16T02:13:30.859Z,17.20
2023-05-16T02:15:53.037Z,17.27
2023-05-16T02:18:14.545Z,17.57
2023-05-16T02:20:36.131Z,16.60
2023-05-16T02:22:57.617Z,16.40
2023-05-16T02:25:19.202Z,17.87
2023-05-16T02:27:41.328Z,18.43
2023-05-16T02:30:02.881Z,18.10
2023-05-16T02:32:24.782Z,16.27
2023-05-16T02:34:46.233Z,18.53
2023-05-16T02:37:07.945Z,18.20
2023-05-16T02:39:30.081Z,18.43
2023-05-16T02:41:51.550Z,18.20
2023-05-16T02:44:12.997Z,18.20
2023-05-16T02:46:34.927Z,18.50
2023-05-16T02:48:56.792Z,18.20
2023-05-16T02:51:20.836Z,17.83
2023-05-16T02:53:42.319Z,18.20
2023-05-16T02:56:06.894Z,18.40
2023-05-16T02:58:28.342Z,18.97
2023-05-16T03:00:49.746Z,19.43
2023-05-16T03:03:11.583Z,19.03
2023-05-16T03:05:33.336Z,19.37
2023-05-16T03:07:54.879Z,19.13
2023-05-16T03:10:16.409Z,19.40
2023-05-16T03:12:37.844Z,20.40
2023-05-16T03:14:59.278Z,20.30
2023-05-16T03:17:20.738Z,19.33
2023-05-16T03:19:42.211Z,18.43
2023-05-16T03:22:04.193Z,17.87
2023-05-16T03:24:26.121Z,17.10
2023-05-16T03:26:47.607Z,15.67
2023-05-16T03:29:09.028Z,15.83
2023-05-16T03:31:32.157Z,14.23
2023-05-16T03:33:53.596Z,15.73
2023-05-16T03:36:15.084Z,16.00
2023-05-16T03:38:36.840Z,15.33
2023-05-16T03:40:58.293Z,15.43
2023-05-16T03:43:19.733Z,15.43
2023-05-16T03:45:41.238Z,14.20
2023-05-16T03:48:02.898Z,15.70
2023-05-16T03:50:24.565Z,15.23
2023-05-16T03:52:46.130Z,15.90
2023-05-16T03:55:08.255Z,13.80
2023-05-16T03:57:32.498Z,15.27
2023-05-16T03:59:53.935Z,14.87
2023-05-16T04:02:16.809Z,15.00
2023-05-16T04:04:40.261Z,14.70
2023-05-16T04:07:02.419Z,14.90
2023-05-16T04:09:23.920Z,14.63
2023-05-16T04:11:45.807Z,14.73
2023-05-16T04:14:07.513Z,14.37
2023-05-16T04:16:29.063Z,14.87
2023-05-16T04:18:50.803Z,14.50
2023-05-16T04:21:15.178Z,13.93
2023-05-16T04:23:36.654Z,14.20
2023-05-16T04:25:58.572Z,14.13
2023-05-16T04:28:20.004Z,13.20
2023-05-16T04:30:41.480Z,13.67
2023-05-16T04:33:03.097Z,13.83
2023-05-16T04:35:24.817Z,13.27
2023-05-16T04:37:46.847Z,13.93
2023-05-16T04:40:09.861Z,12.37
2023-05-16T04:42:31.434Z,13.07
2023-05-16T04:44:53.208Z,13.17
2023-05-16T04:47:14.692Z,13.13
2023-05-16T04:49:36.205Z,13.13
2023-05-16T04:51:57.790Z,13.50
2023-05-16T04:54:19.251Z,13.43
2023-05-16T04:56:40.742Z,12.23
2023-05-16T04:59:02.684Z,12.77
2023-05-16T05:01:24.161Z,13.37
2023-05-16T05:03:48.198Z,13.17
2023-05-16T05:06:09.898Z,13.30
2023-05-16T05:08:31.413Z,12.47
2023-05-16T05:10:52.844Z,14.33
2023-05-16T05:13:14.272Z,11.90
2023-05-16T05:15:35.944Z,13.40
2023-05-16T05:17:57.550Z,12.00
2023-05-16T05:20:19.346Z,12.60
2023-05-16T05:22:41.287Z,12.03
2023-05-16T05:25:03.055Z,11.97
2023-05-16T05:27:25.461Z,11.97
2023-05-16T05:29:46.922Z,11.17
2023-05-16T05:32:08.652Z,12.13
2023-05-16T05:34:30.815Z,11.80
2023-05-16T05:36:52.252Z,11.60
2023-05-16T05:39:13.673Z,12.27
2023-05-16T05:41:35.204Z,11.87
2023-05-16T05:43:56.674Z,12.60
2023-05-16T05:46:18.198Z,13.63
2023-05-16T05:48:39.895Z,11.93
2023-05-16T05:51:01.433Z,12.30
2023-05-16T05:53:22.917Z,11.67
2023-05-16T05:55:44.346Z,12.23
2023-05-16T05:58:07.185Z,11.70
2023-05-16T06:00:29.501Z,12.10
2023-05-16T06:02:51.272Z,12.93
2023-05-16T06:05:12.920Z,12.37
2023-05-16T06:07:34.356Z,11.90
2023-05-16T06:09:55.903Z,13.93
2023-05-16T06:12:17.568Z,14.13
2023-05-16T06:14:39.665Z,13.60
2023-05-16T06:17:01.137Z,13.20
2023-05-16T06:19:22.874Z,14.70
2023-05-16T06:21:44.480Z,18.00
2023-05-16T06:24:05.976Z,15.23
2023-05-16T06:26:27.445Z,14.80
2023-05-16T06:28:48.873Z,15.17
2023-05-16T06:31:10.379Z,15.07
2023-05-16T06:33:31.851Z,15.07
2023-05-16T06:35:53.373Z,14.13
2023-05-16T06:38:15.916Z,14.43
2023-05-16T06:40:37.580Z,14.47
2023-05-16T06:42:59.079Z,13.53
2023-05-16T06:45:20.802Z,13.33
2023-05-16T06:47:42.264Z,14.40
2023-05-16T06:50:03.943Z,11.87
2023-05-16T06:52:25.489Z,12.27
2023-05-16T06:54:46.936Z,12.70
2023-05-16T06:57:11.364Z,13.30
2023-05-16T06:59:32.837Z,13.07
2023-05-16T07:01:54.364Z,12.50
2023-05-16T07:04:16.305Z,13.03
2023-05-16T07:06:37.862Z,11.83
2023-05-16T07:08:59.333Z,10.90
2023-05-16T07:11:21.427Z,10.93
2023-05-16T07:13:42.874Z,11.33
2023-05-16T07:16:04.721Z,11.37
2023-05-16T07:18:26.225Z,11.87
2023-05-16T07:20:48.449Z,12.10
2023-05-16T07:23:10.505Z,11.93
2023-05-16T07:25:32.203Z,11.43
2023-05-16T07:27:53.654Z,10.93
2023-05-16T07:30:15.213Z,10.07
2023-05-16T07:32:36.708Z,8.87
2023-05-16T07:34:58.167Z,9.43
2023-05-16T07:37:20.579Z,8.80
2023-05-16T07:39:42.604Z,7.57
2023-05-16T07:42:04.151Z,6.83
2023-05-16T07:44:25.593Z,7.37
2023-05-16T07:46:47.146Z,7.13
2023-05-16T07:49:08.709Z,6.30
2023-05-16T07:51:30.240Z,6.60
2023-05-16T07:53:52.050Z,6.23
2023-05-16T07:56:13.723Z,6.00
2023-05-16T07:58:35.274Z,6.83
2023-05-16T08:00:56.828Z,6.03
2023-05-16T08:03:18.533Z,5.17
2023-05-16T08:05:40.192Z,4.50
2023-05-16T08:08:01.722Z,4.13
2023-05-16T08:10:23.818Z,4.47
2023-05-16T08:12:46.356Z,4.20
2023-05-16T08:15:08.369Z,3.70
2023-05-16T08:17:29.882Z,3.53
2023-05-16T08:19:51.389Z,3.33
2023-05-16T08:22:12.869Z,3.30
2023-05-16T08:24:34.418Z,3.50
2023-05-16T08:26:55.860Z,3.43
2023-05-16T08:29:17.601Z,3.20
2023-05-16T08:31:39.652Z,2.80
2023-05-16T08:34:01.816Z,2.87
2023-05-16T08:36:23.264Z,3.60
2023-05-16T08:38:44.748Z,3.23
2023-05-16T08:41:06.353Z,3.23
2023-05-16T08:43:28.296Z,3.07
2023-05-16T08:45:50.184Z,3.47
2023-05-16T08:48:12.104Z,2.93
2023-05-16T08:50:35.697Z,3.17
2023-05-16T08:52:57.832Z,3.03
2023-05-16T08:55:23.070Z,3.10
2023-05-16T08:57:45.639Z,3.30
2023-05-16T09:00:12.301Z,3.03
2023-05-16T09:02:34.720Z,2.93
2023-05-16T09:04:57.569Z,3.10
2023-05-16T09:07:19.059Z,2.83
2023-05-16T09:09:41.643Z,2.60
2023-05-16T09:12:03.209Z,2.70
2023-05-16T09:14:24.690Z,3.10
2023-05-16T09:17:03.852Z,3.00
2023-05-16T09:19:25.480Z,2.60
2023-05-16T09:21:47.121Z,2.73
2023-05-16T09:24:09.879Z,2.90
2023-05-16T09:26:33.604Z,2.60
2023-05-16T09:28:56.070Z,2.70
2023-05-16T09:31:26.944Z,2.90
2023-05-16T09:33:50.211Z,2.47
2023-05-16T09:36:11.701Z,2.70
2023-05-16T09:38:33.983Z,2.77
2023-05-16T09:40:55.823Z,2.37
2023-05-16T09:43:18.689Z,2.33
2023-05-16T09:45:46.257Z,2.50
2023-05-16T09:48:09.411Z,2.43
2023-05-16T09:50:36.060Z,2.00
2023-05-16T09:52:57.608Z,2.60
2023-05-16T09:55:19.159Z,2.80
2023-05-16T09:57:40.779Z,3.22
2023-05-16T10:00:08.333Z,3.60
2023-05-16T10:02:30.281Z,1.92
2023-05-16T10:04:51.913Z,2.00
2023-05-16T10:07:14.679Z,2.22
2023-05-16T10:09:39.526Z,1.90
2023-05-16T10:12:04.227Z,2.15
2023-05-16T10:14:26.491Z,1.75
2023-05-16T10:16:51.658Z,2.20
2023-05-16T10:19:14.570Z,1.98
2023-05-16T10:21:38.691Z,2.20
2023-05-16T10:24:06.303Z,2.45
2023-05-16T10:26:28.076Z,2.05
2023-05-16T10:28:51.059Z,2.40
2023-05-16T10:31:13.024Z,2.10
2023-05-16T10:33:36.255Z,2.30
2023-05-16T10:35:58.363Z,2.22
2023-05-16T10:38:21.422Z,2.17
2023-05-16T10:40:43.444Z,2.40
2023-05-16T10:43:07.748Z,5.70
2023-05-16T10:45:30.399Z,2.42
2023-05-16T10:47:57.218Z,2.85
2023-05-16T10:50:42.879Z,2.28
2023-05-16T10:53:29.064Z,2.67
2023-05-16T10:56:06.891Z,2.90
2023-05-16T10:58:31.433Z,2.35
2023-05-16T11:01:25.480Z,2.15
2023-05-16T11:03:59.182Z,2.33
2023-05-16T11:06:24.895Z,2.30
2023-05-16T11:09:14.267Z,2.28
2023-05-16T11:11:48.692Z,2.50
2023-05-16T11:14:20.161Z,2.17
2023-05-16T11:16:41.744Z,2.28
2023-05-16T11:19:07.734Z,2.22
2023-05-16T11:22:07.825Z,2.45
2023-05-16T11:24:32.824Z,2.40
2023-05-16T11:26:54.264Z,1.92
2023-05-16T11:29:15.860Z,2.45
2023-05-16T11:31:37.451Z,2.53
2023-05-16T11:33:59.122Z,2.55
2023-05-16T11:36:20.581Z,2.40
2023-05-16T11:38:43.795Z,2.35
2023-05-16T11:41:06.992Z,2.28
2023-05-16T11:43:28.482Z,1.80
2023-05-16T11:45:56.010Z,1.73
2023-05-16T11:48:28.658Z,2.50
2023-05-16T11:50:57.156Z,2.50
2023-05-16T11:53:18.773Z,2.08
2023-05-16T11:55:42.726Z,2.13
2023-05-16T11:58:04.600Z,2.00
2023-05-16T12:00:27.288Z,2.13
2023-05-16T12:02:52.500Z,1.73
2023-05-16T12:05:15.163Z,2.33
2023-05-16T12:07:40.126Z,2.15
2023-05-16T12:10:09.025Z,2.05
2023-05-16T12:12:31.022Z,2.10
2023-05-16T12:14:52.529Z,1.98
2023-05-16T12:17:14.390Z,2.33
2023-05-16T12:19:36.501Z,1.80
2023-05-16T12:21:58.156Z,1.80
2023-05-16T12:24:19.735Z,2.17
2023-05-16T12:26:43.523Z,1.73
2023-05-16T12:29:05.581Z,2.13
2023-05-16T12:31:32.273Z,2.03
2023-05-16T12:33:57.008Z,1.85
2023-05-16T12:36:19.642Z,1.80
2023-05-16T12:38:46.897Z,2.28
2023-05-16T12:41:08.499Z,2.10
2023-05-16T12:43:29.980Z,2.13
2023-05-16T12:45:53.990Z,1.88
2023-05-16T12:48:16.118Z,1.67
2023-05-16T12:50:39.336Z,1.70
2023-05-16T12:53:01.512Z,1.58
2023-05-16T12:55:23.033Z,1.60
2023-05-16T12:57:47.644Z,1.73
2023-05-16T13:00:11.982Z,1.90
2023-05-16T13:02:33.518Z,1.75
2023-05-16T13:04:55.115Z,2.08
2023-05-16T13:07:17.599Z,4.32
2023-05-16T13:09:39.147Z,3.42
2023-05-16T13:12:00.930Z,1.90
2023-05-16T13:14:23.040Z,2.05
2023-05-16T13:16:45.003Z,1.95
2023-05-16T13:19:06.593Z,1.88
2023-05-16T13:21:30.227Z,1.70
2023-05-16T13:23:51.760Z,1.90
2023-05-16T13:26:13.255Z,2.22
2023-05-16T13:28:34.742Z,2.22
2023-05-16T13:30:57.723Z,1.60
2023-05-16T13:33:20.679Z,1.65
2023-05-16T13:35:42.145Z,1.55
2023-05-16T13:38:03.952Z,1.90
2023-05-16T13:40:25.459Z,2.13
2023-05-16T13:42:47.059Z,1.60
2023-05-16T13:45:08.971Z,2.55
2023-05-16T13:47:30.590Z,3.00
2023-05-16T13:49:52.122Z,1.90
2023-05-16T13:52:13.650Z,6.45
2023-05-16T13:54:35.192Z,3.22
2023-05-16T13:56:57.636Z,25.55
2023-05-16T13:59:31.996Z,25.55
2023-05-16T14:02:00.586Z,11.70
2023-05-16T14:04:22.636Z,30.30
2023-05-16T14:06:44.336Z,27.67
2023-05-16T14:09:06.409Z,10.20
2023-05-16T14:11:29.378Z,8.32
2023-05-16T14:13:51.008Z,6.00
2023-05-16T14:16:12.489Z,4.50
2023-05-16T14:18:34.002Z,6.25
2023-05-16T14:20:56.563Z,4.45
2023-05-16T14:23:18.044Z,5.20
2023-05-16T14:25:39.499Z,5.10
2023-05-16T14:28:00.984Z,5.88
2023-05-16T14:30:22.498Z,1.73
2023-05-16T14:32:44.000Z,2.10
2023-05-16T14:35:05.950Z,6.13
2023-05-16T14:37:27.455Z,1.80
2023-05-16T14:39:50.625Z,1.80
2023-05-16T14:42:12.803Z,2.00
2023-05-16T14:44:34.295Z,1.60
2023-05-16T14:46:55.777Z,1.70
2023-05-16T14:49:17.497Z,3.45
2023-05-16T14:51:38.982Z,4.45
2023-05-16T14:54:00.677Z,1.50
2023-05-16T14:56:22.663Z,1.23
2023-05-16T14:58:44.298Z,1.20
2023-05-16T15:01:05.802Z,2.13
2023-05-16T15:03:27.556Z,2.10
2023-05-16T15:05:49.035Z,1.63
2023-05-16T15:08:10.470Z,1.50
2023-05-16T15:10:31.928Z,1.42
2023-05-16T15:12:53.409Z,1.80
2023-05-16T15:15:16.652Z,5.10
2023-05-16T15:17:39.448Z,1.30
2023-05-16T15:20:01.187Z,1.42
2023-05-16T15:22:22.749Z,1.58
2023-05-16T15:24:44.414Z,1.85
2023-05-16T15:27:06.136Z,1.40
2023-05-16T15:29:27.686Z,1.73
2023-05-16T15:31:49.190Z,1.25
2023-05-16T15:34:11.649Z,1.30
2023-05-16T15:36:33.183Z,1.73
2023-05-16T15:38:54.712Z,1.50
2023-05-16T15:41:33.916Z,1.42
2023-05-16T15:43:57.960Z,1.42
2023-05-16T15:46:20.203Z,1.55
2023-05-16T15:48:44.604Z,1.75
2023-05-16T15:51:06.341Z,1.50
2023-05-16T15:53:27.797Z,1.40
2023-05-16T15:55:49.495Z,1.52
2023-05-16T15:58:11.194Z,1.70
2023-05-16T16:00:32.718Z,2.08
2023-05-16T16:02:54.363Z,2.15
2023-05-16T16:05:16.088Z,1.90
2023-05-16T16:07:37.563Z,1.80
2023-05-16T16:09:59.649Z,1.88
2023-05-16T16:12:21.463Z,1.90
2023-05-16T16:14:43.049Z,1.95
2023-05-16T16:17:07.303Z,1.48
2023-05-16T16:19:29.151Z,1.40
2023-05-16T16:21:50.611Z,1.42
2023-05-16T16:24:12.914Z,1.80
2023-05-16T16:26:34.412Z,1.90
2023-05-16T16:28:55.938Z,2.03
2023-05-16T16:31:17.534Z,1.40
2023-05-16T16:33:39.059Z,1.70
2023-05-16T16:36:01.400Z,2.00
2023-05-16T16:38:23.317Z,1.73
2023-05-16T16:40:45.174Z,1.17
2023-05-16T16:43:07.055Z,1.35
2023-05-16T16:45:28.800Z,1.55
2023-05-16T16:47:51.498Z,1.73
2023-05-16T16:50:13.071Z,2.33
2023-05-16T16:52:35.138Z,1.77
2023-05-16T16:54:56.699Z,1.67
2023-05-16T16:57:19.336Z,1.50
2023-05-16T16:59:40.864Z,1.90
2023-05-16T17:02:02.351Z,1.27
2023-05-16T17:04:23.881Z,1.42
2023-05-16T17:06:46.558Z,1.73
2023-05-16T17:09:13.863Z,1.40
2023-05-16T17:11:37.095Z,1.50
2023-05-16T17:13:59.724Z,2.28
2023-05-16T17:16:21.336Z,1.90
2023-05-16T17:18:42.993Z,1.23
2023-05-16T17:21:04.597Z,1.40
2023-05-16T17:23:26.155Z,1.50
2023-05-16T17:25:47.750Z,1.40
2023-05-16T17:28:09.409Z,1.88
2023-05-16T17:30:30.945Z,1.80
2023-05-16T17:32:52.584Z,2.55
2023-05-16T17:35:14.348Z,1.63
2023-05-16T17:37:36.068Z,2.58
2023-05-16T17:39:58.545Z,1.27
2023-05-16T17:42:20.004Z,2.30
2023-05-16T17:44:41.531Z,2.47
2023-05-16T17:47:03.185Z,1.75
2023-05-16T17:49:24.704Z,1.88
2023-05-16T17:51:54.636Z,2.53
2023-05-16T17:54:18.483Z,2.15
2023-05-16T17:56:40.033Z,2.03
2023-05-16T17:59:02.026Z,1.83
2023-05-16T18:01:23.530Z,1.67
2023-05-16T18:03:45.015Z,1.75
2023-05-16T18:06:07.230Z,2.17
2023-05-16T18:08:28.776Z,1.73
2023-05-16T18:10:52.186Z,1.40
2023-05-16T18:13:14.706Z,1.70
2023-05-16T18:15:38.015Z,1.50
2023-05-16T18:17:59.520Z,1.70
2023-05-16T18:20:21.333Z,1.77
2023-05-16T18:22:42.939Z,1.65
2023-05-16T18:25:06.400Z,1.58
2023-05-16T18:27:27.880Z,1.70
2023-05-16T18:29:49.355Z,2.10
2023-05-16T18:32:10.868Z,1.50
2023-05-16T18:34:32.386Z,1.50
2023-05-16T18:36:53.876Z,1.67
2023-05-16T18:39:15.349Z,2.08
2023-05-16T18:41:36.788Z,4.80
2023-05-16T18:43:58.246Z,1.63
2023-05-16T18:46:19.684Z,1.60
2023-05-16T18:48:41.234Z,1.50
2023-05-16T18:51:02.993Z,1.43
2023-05-16T18:53:24.481Z,1.57
2023-05-16T18:55:45.960Z,1.40
2023-05-16T18:58:07.587Z,1.70
2023-05-16T19:00:29.046Z,1.80
2023-05-16T19:02:51.087Z,1.50
2023-05-16T19:05:14.306Z,2.73
2023-05-16T19:07:35.973Z,2.30
2023-05-16T19:09:57.419Z,2.20
2023-05-16T19:12:20.236Z,2.00
2023-05-16T19:14:43.542Z,2.00
2023-05-16T19:17:05.015Z,2.33
2023-05-16T19:19:26.720Z,2.20
2023-05-16T19:21:48.288Z,1.90
2023-05-16T19:24:09.787Z,1.50
2023-05-16T19:26:31.288Z,1.67
2023-05-16T19:28:52.737Z,1.47
2023-05-16T19:31:14.223Z,1.50
2023-05-16T19:33:35.758Z,1.80
2023-05-16T19:35:58.512Z,1.87
2023-05-16T19:38:20.289Z,1.57
2023-05-16T19:40:41.753Z,1.83
2023-05-16T19:43:03.201Z,2.00
2023-05-16T19:45:24.684Z,1.90
2023-05-16T19:47:46.376Z,1.83
2023-05-16T19:50:08.628Z,1.87
2023-05-16T19:52:30.107Z,1.80
2023-05-16T19:54:51.731Z,1.30
2023-05-16T19:57:13.173Z,1.57
2023-05-16T19:59:34.708Z,1.80
2023-05-16T20:01:56.151Z,1.70
2023-05-16T20:04:17.827Z,1.63
2023-05-16T20:06:39.459Z,1.40
2023-05-16T20:09:00.953Z,1.60
2023-05-16T20:11:22.753Z,1.40
2023-05-16T20:13:44.231Z,1.67
2023-05-16T20:16:05.977Z,1.60
2023-05-16T20:18:27.450Z,1.50
2023-05-16T20:20:48.938Z,1.60
2023-05-16T20:23:10.406Z,2.00
2023-05-16T20:25:32.192Z,1.77
2023-05-16T20:27:53.656Z,2.07
2023-05-16T20:30:15.145Z,1.70
2023-05-16T20:32:36.640Z,1.90
2023-05-16T20:34:58.341Z,1.80
2023-05-16T20:37:21.254Z,1.80
2023-05-16T20:39:42.689Z,2.30
2023-05-16T20:42:05.046Z,2.63
2023-05-16T20:44:28.620Z,2.07
2023-05-16T20:46:50.134Z,2.03
2023-05-16T20:49:11.570Z,1.80
2023-05-16T20:51:33.112Z,1.80
2023-05-16T20:53:54.642Z,1.87
2023-05-16T20:56:16.253Z,1.50
2023-05-16T20:58:41.159Z,1.90
2023-05-16T21:01:02.626Z,1.70
2023-05-16T21:03:24.157Z,2.00
2023-05-16T21:05:45.710Z,1.70
2023-05-16T21:08:07.210Z,1.53
2023-05-16T21:10:28.683Z,1.50
2023-05-16T21:12:50.309Z,2.00
2023-05-16T21:15:11.855Z,1.50
2023-05-16T21:17:33.389Z,1.57
2023-05-16T21:19:54.938Z,2.00
2023-05-16T21:22:16.613Z,2.10
2023-05-16T21:24:38.116Z,2.10
2023-05-16T21:26:59.570Z,1.70
2023-05-16T21:29:21.055Z,2.23
2023-05-16T21:31:42.504Z,1.80
2023-05-16T21:34:04.054Z,1.90
2023-05-16T21:36:25.946Z,1.70
2023-05-16T21:38:47.810Z,1.57
2023-05-16T21:41:09.298Z,1.80
2023-05-16T21:43:30.761Z,1.80
2023-05-16T21:45:52.221Z,1.53
2023-05-16T21:48:13.839Z,1.70
2023-05-16T21:50:35.548Z,1.60
2023-05-16T21:52:57.018Z,1.67
2023-05-16T21:55:18.557Z,1.73
2023-05-16T21:57:40.041Z,1.80
2023-05-16T22:00:06.536Z,1.53
2023-05-16T22:02:27.995Z,1.70
2023-05-16T22:04:50.499Z,1.10
2023-05-16T22:07:12.018Z,1.70
2023-05-16T22:09:33.533Z,1.60
2023-05-16T22:11:55.002Z,1.40
2023-05-16T22:14:16.523Z,1.53
2023-05-16T22:16:38.076Z,1.47
2023-05-16T22:18:59.633Z,1.90
2023-05-16T22:21:21.370Z,1.40
2023-05-16T22:23:42.864Z,1.80
2023-05-16T22:26:04.781Z,1.47
2023-05-16T22:28:26.299Z,1.40
2023-05-16T22:30:47.758Z,1.60
2023-05-16T22:33:09.386Z,1.50
2023-05-16T22:35:33.827Z,1.47
2023-05-16T22:37:55.291Z,1.83
2023-05-16T22:40:16.739Z,1.57
2023-05-16T22:42:38.256Z,1.67
2023-05-16T22:44:59.750Z,1.17
2023-05-16T22:47:21.554Z,1.80
2023-05-16T22:49:43.010Z,1.40
2023-05-16T22:52:04.794Z,1.60
2023-05-16T22:54:26.309Z,1.37
2023-05-16T22:56:47.778Z,1.70
2023-05-16T22:59:09.217Z,1.77
2023-05-16T23:01:30.710Z,1.40
2023-05-16T23:03:52.244Z,1.50
2023-05-16T23:06:13.733Z,1.70
2023-05-16T23:08:35.352Z,1.73
2023-05-16T23:10:56.841Z,1.90
2023-05-16T23:13:18.431Z,1.53
2023-05-16T23:15:40.002Z,1.40
2023-05-16T23:18:01.515Z,2.00
2023-05-16T23:20:23.115Z,1.93
2023-05-16T23:22:44.554Z,1.80
2023-05-16T23:25:07.187Z,1.67
2023-05-16T23:27:28.678Z,1.60
2023-05-16T23:29:50.176Z,1.70
2023-05-16T23:32:11.690Z,1.63
2023-05-16T23:34:33.199Z,1.47
2023-05-16T23:36:54.651Z,1.63
2023-05-16T23:39:17.338Z,1.70
2023-05-16T23:41:38.807Z,2.27
2023-05-16T23:44:00.463Z,1.83
2023-05-16T23:46:21.914Z,1.40
2023-05-16T23:48:43.453Z,1.40
2023-05-16T23:51:07.464Z,1.67
2023-05-16T23:53:31.041Z,1.53
2023-05-16T23:55:52.636Z,1.93
2023-05-16T23:58:14.083Z,2.20
